Time;durP1;ratioP1;P1;durP2;ratioP2;P2;SDS_P1;SDS_P2;PMS_P1;PMS_P2;Temp;Humidity;BMP_temperature;BMP_pressure;BME280_temperature;BME280_humidity;BME280_pressure;Samples;Min_cycle;Max_cycle;Signal;HPM_P1;HPM_P2
2022/06/08 00:02:28;;;;;;;3.25;1.60;;;16.80;99.90;;;;;;6303337;22;20014;-90
2022/06/08 00:04:53;;;;;;;3.20;1.50;;;16.80;99.90;;;;;;6303901;22;20000;-91
2022/06/08 00:07:19;;;;;;;2.53;1.50;;;16.70;99.90;;;;;;6304687;22;20521;-92
2022/06/08 00:09:44;;;;;;;5.97;1.58;;;16.70;99.90;;;;;;6303958;22;20340;-88
2022/06/08 00:12:10;;;;;;;1.38;1.30;;;16.70;99.90;;;;;;6303464;22;20343;-89
2022/06/08 00:14:36;;;;;;;1.92;1.40;;;16.80;99.90;;;;;;6303548;22;19999;-91
2022/06/08 00:17:02;;;;;;;5.05;1.25;;;16.80;99.90;;;;;;6303706;22;20038;-88
2022/06/08 00:19:28;;;;;;;1.77;1.30;;;16.70;99.90;;;;;;6303906;22;20500;-90
2022/06/08 00:21:54;;;;;;;3.58;1.40;;;16.70;99.90;;;;;;6303508;22;19999;-87
2022/06/08 00:24:19;;;;;;;2.90;1.20;;;16.70;99.90;;;;;;6304621;22;19996;-88
2022/06/08 00:26:46;;;;;;;1.08;1.08;;;16.70;99.90;;;;;;6303427;22;20003;-89
2022/06/08 00:29:12;;;;;;;1.33;1.00;;;16.70;99.90;;;;;;6303584;22;20000;-88
2022/06/08 00:31:38;;;;;;;1.10;1.10;;;16.70;99.90;;;;;;6276563;22;20010;-87
2022/06/08 00:34:03;;;;;;;1.65;1.00;;;16.70;99.90;;;;;;6276101;22;20011;-89
2022/06/08 00:36:29;;;;;;;2.38;0.90;;;16.70;99.90;;;;;;6303298;22;20082;-87
2022/06/08 00:38:55;;;;;;;3.30;1.27;;;16.80;99.90;;;;;;6303258;22;20335;-88
2022/06/08 00:41:39;;;;;;;2.20;1.00;;;16.90;99.90;;;;;;6304159;22;20030;-89
2022/06/08 00:44:30;;;;;;;0.75;0.75;;;16.80;99.90;;;;;;6303352;22;19999;-88
2022/06/08 00:46:56;;;;;;;2.25;1.05;;;16.80;99.90;;;;;;6303320;22;20494;-87
2022/06/08 00:49:38;;;;;;;9.75;1.45;;;16.70;99.90;;;;;;6304404;22;20000;-87
2022/06/08 00:52:05;;;;;;;5.18;0.90;;;16.80;99.90;;;;;;6303261;22;20030;-88
2022/06/08 00:54:37;;;;;;;3.05;0.82;;;16.80;99.90;;;;;;6275778;22;20000;-88
2022/06/08 00:57:28;;;;;;;2.88;0.80;;;16.80;99.90;;;;;;6303197;22;20063;-88
2022/06/08 01:00:04;;;;;;;2.28;1.00;;;16.80;99.90;;;;;;6275024;22;20381;-88
2022/06/08 01:02:30;;;;;;;1.98;1.00;;;16.80;99.90;;;;;;6303206;22;20006;-88
2022/06/08 01:05:24;;;;;;;1.42;1.00;;;16.80;99.90;;;;;;6303173;22;19995;-89
2022/06/08 01:07:53;;;;;;;1.00;0.93;;;16.80;99.90;;;;;;6303489;22;20079;-89
2022/06/08 01:10:23;;;;;;;3.55;0.85;;;16.90;99.90;;;;;;6275530;22;20062;-88
2022/06/08 01:12:49;;;;;;;1.65;0.63;;;16.80;99.90;;;;;;6275547;22;20003;-89
2022/06/08 01:15:19;;;;;;;1.15;1.02;;;16.80;99.90;;;;;;6275103;22;20179;-89
2022/06/08 01:17:45;;;;;;;1.20;1.00;;;16.80;99.90;;;;;;6303143;22;20297;-87
2022/06/08 01:20:11;;;;;;;3.03;0.80;;;16.80;99.90;;;;;;6275975;22;20082;-91
2022/06/08 01:22:37;;;;;;;1.63;0.80;;;16.80;99.90;;;;;;6302966;22;20500;-89
2022/06/08 01:25:05;;;;;;;2.50;0.90;;;16.90;99.90;;;;;;6275320;22;20086;-87
2022/06/08 01:28:09;;;;;;;4.50;0.77;;;16.90;99.90;;;;;;6275530;22;19999;-89
2022/06/08 01:30:47;;;;;;;2.50;1.00;;;16.90;99.90;;;;;;6302898;22;20309;-90
2022/06/08 01:33:18;;;;;;;3.30;1.30;;;16.90;99.90;;;;;;6302781;22;20030;-88
2022/06/08 01:36:02;;;;;;;1.42;0.90;;;17.00;99.90;;;;;;6302940;22;20439;-88
2022/06/08 01:39:03;;;;;;;7.03;0.95;;;17.10;99.90;;;;;;6302904;22;20025;-88
2022/06/08 01:41:50;;;;;;;2.85;0.90;;;17.00;99.90;;;;;;6275103;22;20003;-87
2022/06/08 01:44:16;;;;;;;0.95;0.85;;;17.00;99.90;;;;;;6303109;22;20192;-89
2022/06/08 01:47:08;;;;;;;0.75;0.75;;;17.10;99.90;;;;;;6302770;22;20030;-90
2022/06/08 01:50:07;;;;;;;1.30;0.85;;;17.10;99.90;;;;;;6274975;22;20122;-90
2022/06/08 01:52:49;;;;;;;3.08;0.60;;;17.10;99.90;;;;;;6269664;22;20011;-90
2022/06/08 01:55:24;;;;;;;1.65;0.80;;;17.10;99.90;;;;;;6302570;22;19999;-88
2022/06/08 01:57:55;;;;;;;3.58;0.90;;;17.10;99.90;;;;;;6302666;22;19999;-91
2022/06/08 02:00:25;;;;;;;2.75;0.90;;;17.10;99.90;;;;;;6302361;22;20424;-88
2022/06/08 02:03:08;;;;;;;0.95;0.80;;;17.10;99.90;;;;;;6303037;22;20000;-90
2022/06/08 02:05:39;;;;;;;1.55;0.93;;;17.10;99.90;;;;;;6275070;22;20133;-90
2022/06/08 02:08:30;;;;;;;5.72;0.98;;;17.10;99.90;;;;;;6275100;22;20056;-88
2022/06/08 02:11:15;;;;;;;10.45;0.95;;;17.10;99.90;;;;;;6303654;22;20003;-89
2022/06/08 02:13:51;;;;;;;0.95;0.70;;;17.10;99.90;;;;;;6302465;22;20019;-88
2022/06/08 02:16:44;;;;;;;2.97;0.77;;;17.10;99.90;;;;;;6302203;22;20011;-87
2022/06/08 02:19:31;;;;;;;2.83;1.00;;;17.10;99.90;;;;;;6301719;22;20003;-86
2022/06/08 02:22:06;;;;;;;8.57;1.30;;;17.20;99.90;;;;;;6302929;22;20483;-86
2022/06/08 02:24:40;;;;;;;4.15;0.93;;;17.10;99.90;;;;;;6302125;22;20225;-86
2022/06/08 02:27:17;;;;;;;2.70;0.90;;;17.20;99.90;;;;;;6301905;22;20011;-87
2022/06/08 02:30:12;;;;;;;3.75;0.98;;;17.20;99.90;;;;;;6274307;22;20007;-87
2022/06/08 02:35:46;;;;;;;6.57;1.00;;;17.10;99.90;;;;;;6301801;22;20018;-88
2022/06/08 02:38:15;;;;;;;2.90;0.82;;;17.10;99.90;;;;;;6301542;22;20488;-89
2022/06/08 02:40:46;;;;;;;2.15;0.70;;;17.10;99.90;;;;;;6302191;22;20013;-88
2022/06/08 02:43:19;;;;;;;3.70;0.90;;;17.10;99.90;;;;;;6301654;22;20002;-88
2022/06/08 02:45:47;;;;;;;5.50;0.82;;;17.10;99.90;;;;;;6301795;22;20003;-87
2022/06/08 02:48:14;;;;;;;2.58;0.70;;;17.00;99.90;;;;;;6300471;22;20003;-85
2022/06/08 02:50:52;;;;;;;2.22;1.08;;;17.00;99.90;;;;;;6296537;22;20007;-87
2022/06/08 02:53:18;;;;;;;2.28;1.00;;;17.00;99.90;;;;;;6300830;22;20003;-86
2022/06/08 02:55:56;;;;;;;3.50;0.82;;;17.00;99.90;;;;;;6301471;22;20007;-86
2022/06/08 02:58:37;;;;;;;0.82;0.70;;;16.90;99.90;;;;;;6301271;22;20074;-87
2022/06/08 03:01:09;;;;;;;3.90;0.90;;;16.90;99.90;;;;;;6301252;22;20072;-87
2022/06/08 03:03:56;;;;;;;2.33;1.02;;;16.80;99.90;;;;;;6301507;22;20004;-88
2022/06/08 03:06:33;;;;;;;5.10;1.13;;;16.80;99.90;;;;;;6301178;22;20006;-88
2022/06/08 03:09:03;;;;;;;3.58;1.10;;;16.80;99.90;;;;;;6302538;22;19999;-87
2022/06/08 03:11:37;;;;;;;2.25;1.00;;;16.80;99.90;;;;;;6302657;22;20003;-87
2022/06/08 03:14:07;;;;;;;2.33;1.17;;;16.80;99.90;;;;;;6301663;22;20047;-88
2022/06/08 03:16:38;;;;;;;2.10;1.00;;;16.80;99.90;;;;;;6301960;22;20081;-88
2022/06/08 03:19:04;;;;;;;3.72;1.17;;;16.80;99.90;;;;;;6299609;22;20015;-88
2022/06/08 03:21:29;;;;;;;2.08;1.00;;;16.80;99.90;;;;;;6302877;22;20015;-88
2022/06/08 03:23:55;;;;;;;8.98;1.50;;;16.80;99.90;;;;;;6299934;22;20003;-89
2022/06/08 03:26:23;;;;;;;5.57;1.58;;;16.80;99.90;;;;;;6302355;22;20243;-86
2022/06/08 03:28:49;;;;;;;11.95;1.50;;;16.80;99.90;;;;;;6301878;22;20382;-89
2022/06/08 03:31:15;;;;;;;6.22;1.30;;;16.70;99.90;;;;;;6301951;22;19999;-87
2022/06/08 03:33:41;;;;;;;2.58;1.42;;;16.70;99.90;;;;;;6301929;22;19995;-87
2022/06/08 03:36:08;;;;;;;3.35;1.40;;;16.70;99.90;;;;;;6299775;22;20428;-88
2022/06/08 03:38:34;;;;;;;8.27;1.50;;;16.70;99.90;;;;;;6300346;22;20003;-88
2022/06/08 03:41:00;;;;;;;11.30;1.73;;;16.70;99.90;;;;;;6304970;22;20495;-88
2022/06/08 03:43:26;;;;;;;4.85;1.30;;;16.70;99.90;;;;;;6301784;22;20045;-88
2022/06/08 03:45:55;;;;;;;6.50;1.50;;;16.70;99.90;;;;;;6303646;22;20374;-88
2022/06/08 03:48:22;;;;;;;12.50;1.50;;;16.70;99.90;;;;;;6303759;22;20075;-90
2022/06/08 03:50:54;;;;;;;3.40;1.30;;;16.70;99.90;;;;;;6303703;22;20009;-88
2022/06/08 03:53:24;;;;;;;5.43;1.52;;;16.70;99.90;;;;;;6303804;22;20063;-89
2022/06/08 03:55:51;;;;;;;6.88;1.20;;;16.70;99.90;;;;;;6302282;22;20008;-87
2022/06/08 03:58:20;;;;;;;3.08;1.25;;;16.70;99.90;;;;;;6302815;22;20004;-93
2022/06/08 04:00:46;;;;;;;9.93;1.40;;;16.70;99.90;;;;;;6304657;22;19995;-87
2022/06/08 04:03:12;;;;;;;7.78;1.35;;;16.70;99.90;;;;;;6303651;22;20007;-88
2022/06/08 04:05:38;;;;;;;1.40;1.30;;;16.60;99.90;;;;;;6303277;22;20025;-91
2022/06/08 04:08:04;;;;;;;6.38;1.42;;;16.60;99.90;;;;;;6303736;22;19996;-88
2022/06/08 04:10:30;;;;;;;6.78;1.60;;;16.60;99.90;;;;;;6304659;22;20000;-87
2022/06/08 04:12:56;;;;;;;3.05;1.50;;;16.50;99.90;;;;;;6301530;22;20004;-89
2022/06/08 04:18:15;;;;;;;5.03;1.60;;;16.50;99.90;;;;;;6333501;22;20687;-87
2022/06/08 04:20:43;;;;;;;2.85;1.45;;;16.50;99.90;;;;;;6335070;22;20022;-88
2022/06/08 04:23:09;;;;;;;8.60;1.60;;;16.60;99.90;;;;;;6334140;22;20034;-88
2022/06/08 04:25:36;;;;;;;6.10;1.40;;;16.50;99.90;;;;;;6307017;22;20006;-87
2022/06/08 04:28:02;;;;;;;6.65;1.75;;;16.50;99.90;;;;;;6335399;22;20002;-89
2022/06/08 04:30:28;;;;;;;3.85;1.65;;;16.50;99.90;;;;;;6334233;22;20487;-87
2022/06/08 04:32:54;;;;;;;5.53;1.60;;;16.40;99.90;;;;;;6334451;22;20003;-86
2022/06/08 04:35:20;;;;;;;3.85;1.50;;;16.40;99.90;;;;;;6307136;22;20002;-89
2022/06/08 04:37:45;;;;;;;4.40;1.60;;;16.30;99.90;;;;;;6334331;22;20074;-87
2022/06/08 04:40:14;;;;;;;3.47;1.80;;;16.30;99.90;;;;;;6334339;22;20019;-88
2022/06/08 04:42:41;;;;;;;5.55;1.70;;;16.30;99.90;;;;;;6334144;22;20343;-86
2022/06/08 04:45:08;;;;;;;7.95;1.70;;;16.20;99.90;;;;;;6334483;22;20056;-88
2022/06/08 04:47:34;;;;;;;9.80;1.50;;;16.20;99.90;;;;;;6335487;22;19998;-88
2022/06/08 04:49:59;;;;;;;6.20;1.98;;;16.20;99.90;;;;;;6334477;22;19999;-86
2022/06/08 04:52:25;;;;;;;6.35;1.80;;;16.20;99.90;;;;;;6334098;22;20225;-88
2022/06/08 04:54:51;;;;;;;9.43;2.25;;;16.20;99.90;;;;;;6306347;22;20022;-90
2022/06/08 04:57:17;;;;;;;11.90;2.10;;;16.20;99.90;;;;;;6333833;22;20064;-87
2022/06/08 04:59:44;;;;;;;4.28;2.00;;;16.20;99.90;;;;;;6306161;22;20036;-88
2022/06/08 05:02:10;;;;;;;6.55;1.85;;;16.20;99.90;;;;;;6333839;22;20456;-87
2022/06/08 05:04:37;;;;;;;8.48;1.90;;;16.20;99.90;;;;;;6334584;22;19999;-87
2022/06/08 05:07:03;;;;;;;11.52;2.13;;;16.30;99.90;;;;;;6334237;22;20381;-87
2022/06/08 05:09:29;;;;;;;9.73;2.20;;;16.20;99.90;;;;;;6332498;22;20005;-87
2022/06/08 05:11:55;;;;;;;11.35;1.77;;;16.20;99.90;;;;;;6332496;22;20026;-87
2022/06/08 05:14:20;;;;;;;7.68;1.77;;;16.30;99.90;;;;;;6332436;22;20006;-86
2022/06/08 05:16:46;;;;;;;6.53;1.80;;;16.30;99.90;;;;;;6305190;22;20511;-87
2022/06/08 05:19:12;;;;;;;6.45;2.10;;;16.30;99.90;;;;;;6306139;22;20469;-87
2022/06/08 05:21:41;;;;;;;5.55;2.00;;;16.30;99.90;;;;;;6334388;22;20002;-88
2022/06/08 05:24:08;;;;;;;9.02;1.90;;;16.30;99.90;;;;;;6335903;22;20423;-88
2022/06/08 05:26:34;;;;;;;10.32;1.92;;;16.20;99.90;;;;;;6334832;22;20464;-87
2022/06/08 05:28:59;;;;;;;7.15;1.88;;;16.10;99.90;;;;;;6333276;22;20069;-86
2022/06/08 05:31:25;;;;;;;9.82;2.03;;;16.10;99.90;;;;;;6334009;22;20052;-87
2022/06/08 05:33:52;;;;;;;14.18;2.00;;;16.10;99.90;;;;;;6334112;22;20374;-87
2022/06/08 05:36:18;;;;;;;8.45;2.13;;;16.10;99.90;;;;;;6334044;22;20052;-87
2022/06/08 05:38:43;;;;;;;11.95;2.20;;;16.10;99.90;;;;;;6334030;22;20077;-87
2022/06/08 05:41:09;;;;;;;6.47;1.92;;;16.10;99.90;;;;;;6333853;22;20044;-88
2022/06/08 05:43:35;;;;;;;6.60;2.10;;;16.10;99.90;;;;;;6335107;22;19998;-87
2022/06/08 05:46:01;;;;;;;9.38;1.98;;;16.10;99.90;;;;;;6306295;22;20473;-87
2022/06/08 05:48:27;;;;;;;10.52;2.20;;;16.20;99.90;;;;;;6333944;22;19998;-87
2022/06/08 05:50:53;;;;;;;8.45;2.20;;;16.20;99.90;;;;;;6333930;22;20432;-88
2022/06/08 05:53:19;;;;;;;5.10;2.22;;;16.40;99.90;;;;;;6333866;22;20033;-86
2022/06/08 05:55:45;;;;;;;7.30;2.17;;;16.40;99.90;;;;;;6306342;22;20315;-86
2022/06/08 05:58:11;;;;;;;7.03;2.30;;;16.50;99.90;;;;;;6333842;22;20018;-86
2022/06/08 06:00:39;;;;;;;7.50;2.08;;;16.60;99.90;;;;;;6334846;22;19999;-86
2022/06/08 06:03:07;;;;;;;9.52;2.15;;;16.70;99.90;;;;;;6334612;22;19998;-86
2022/06/08 06:05:34;;;;;;;7.82;2.50;;;16.70;99.90;;;;;;6333786;22;19999;-86
2022/06/08 06:08:00;;;;;;;10.30;2.20;;;16.60;99.90;;;;;;6334000;22;20056;-87
2022/06/08 06:10:28;;;;;;;8.73;2.30;;;16.60;99.90;;;;;;6333504;22;20104;-87
2022/06/08 06:12:54;;;;;;;9.70;2.30;;;16.60;99.90;;;;;;6333851;22;20006;-87
2022/06/08 06:15:21;;;;;;;8.98;2.30;;;16.60;99.90;;;;;;6305969;22;20087;-87
2022/06/08 06:17:46;;;;;;;6.38;2.33;;;16.70;99.90;;;;;;6333843;22;20014;-87
2022/06/08 06:20:12;;;;;;;6.05;2.20;;;16.70;99.90;;;;;;6333697;22;20381;-86
2022/06/08 06:22:38;;;;;;;7.50;2.40;;;16.70;99.90;;;;;;6334712;22;20003;-86
2022/06/08 06:25:05;;;;;;;9.65;2.28;;;16.70;99.90;;;;;;6305864;22;20006;-86
2022/06/08 06:27:31;;;;;;;6.32;2.28;;;16.80;99.90;;;;;;6333848;22;20073;-86
2022/06/08 06:29:56;;;;;;;6.88;2.60;;;16.80;99.90;;;;;;6333710;22;20030;-86
2022/06/08 06:32:28;;;;;;;13.15;2.20;;;16.80;99.90;;;;;;6333607;22;20019;-86
2022/06/08 06:34:56;;;;;;;6.40;2.20;;;16.70;99.90;;;;;;6333662;22;20030;-86
2022/06/08 06:37:22;;;;;;;11.07;2.53;;;16.70;99.90;;;;;;6333430;22;20447;-87
2022/06/08 06:39:48;;;;;;;8.32;2.47;;;16.70;99.90;;;;;;6333389;22;20249;-86
2022/06/08 06:42:16;;;;;;;7.25;2.20;;;16.90;99.90;;;;;;6333627;22;20010;-86
2022/06/08 06:44:42;;;;;;;10.10;2.13;;;16.80;99.90;;;;;;6333596;22;20029;-86
2022/06/08 06:47:08;;;;;;;10.68;2.88;;;16.70;99.90;;;;;;6334664;22;20002;-85
2022/06/08 06:49:33;;;;;;;8.90;2.30;;;16.60;99.90;;;;;;6333506;22;20010;-86
2022/06/08 06:51:59;;;;;;;7.90;2.10;;;16.50;99.90;;;;;;6333443;22;20006;-86
2022/06/08 06:54:25;;;;;;;10.60;2.55;;;16.40;99.90;;;;;;6333498;22;20066;-86
2022/06/08 06:56:51;;;;;;;8.52;2.47;;;16.40;99.90;;;;;;6333424;22;20018;-86
2022/06/08 06:59:16;;;;;;;8.63;2.45;;;16.40;99.90;;;;;;6333606;22;20002;-87
2022/06/08 07:01:42;;;;;;;11.18;2.30;;;16.30;99.90;;;;;;6306094;22;20007;-85
2022/06/08 07:04:08;;;;;;;8.18;2.63;;;16.30;99.90;;;;;;6334340;22;19994;-86
2022/06/08 07:06:34;;;;;;;8.45;2.83;;;16.30;99.90;;;;;;6333382;22;20002;-86
2022/06/08 07:08:59;;;;;;;10.75;2.60;;;16.40;99.90;;;;;;6333207;22;20381;-86
2022/06/08 07:11:32;;;;;;;8.23;2.13;;;16.40;99.90;;;;;;6333813;22;20009;-86
2022/06/08 07:14:03;;;;;;;13.68;2.35;;;16.40;99.90;;;;;;6335421;22;20075;-86
2022/06/08 07:16:29;;;;;;;16.30;2.80;;;16.30;99.90;;;;;;6325619;22;20015;-86
2022/06/08 07:18:55;;;;;;;11.88;2.65;;;16.30;99.90;;;;;;6334948;22;20053;-86
2022/06/08 07:21:21;;;;;;;14.38;2.60;;;16.30;99.90;;;;;;6335110;22;20052;-87
2022/06/08 07:23:47;;;;;;;14.52;3.20;;;16.40;99.90;;;;;;6335379;22;20002;-85
2022/06/08 07:26:14;;;;;;;11.93;2.67;;;16.60;99.90;;;;;;6336103;22;20506;-86
2022/06/08 07:28:40;;;;;;;10.38;2.85;;;16.70;99.90;;;;;;6336592;22;20009;-86
2022/06/08 07:31:06;;;;;;;10.60;2.70;;;16.80;99.90;;;;;;6334973;22;20069;-87
2022/06/08 07:33:34;;;;;;;10.40;2.40;;;16.90;99.90;;;;;;6334949;22;20421;-88
2022/06/08 07:36:01;;;;;;;10.90;2.88;;;17.10;99.90;;;;;;6307277;22;20396;-87
2022/06/08 07:38:27;;;;;;;9.80;2.33;;;17.20;99.90;;;;;;6335224;22;20007;-87
2022/06/08 07:40:53;;;;;;;8.32;2.33;;;17.30;99.90;;;;;;6308006;22;20025;-87
2022/06/08 07:43:19;;;;;;;12.43;2.47;;;17.20;99.90;;;;;;6334883;22;20439;-87
2022/06/08 07:45:45;;;;;;;12.02;2.65;;;17.20;99.90;;;;;;6335121;22;20023;-86
2022/06/08 07:50:56;;;;;;;10.15;2.33;;;17.10;99.90;;;;;;6334863;22;20458;-86
2022/06/08 07:53:21;;;;;;;9.98;2.42;;;17.20;99.90;;;;;;6334973;22;20006;-86
2022/06/08 07:55:47;;;;;;;6.35;2.20;;;17.20;99.90;;;;;;6334918;22;20003;-85
2022/06/08 07:58:13;;;;;;;8.80;2.00;;;17.30;99.90;;;;;;6308241;22;19998;-86
2022/06/08 08:00:43;;;;;;;7.22;2.08;;;17.40;99.90;;;;;;6334659;22;20003;-86
2022/06/08 08:03:10;;;;;;;14.05;2.60;;;17.60;99.90;;;;;;6306998;22;20003;-87
2022/06/08 08:05:35;;;;;;;11.25;2.88;;;17.70;99.90;;;;;;6334936;22;20328;-86
2022/06/08 08:08:01;;;;;;;12.18;2.22;;;17.80;99.90;;;;;;6334755;22;20035;-86
2022/06/08 08:10:27;;;;;;;13.20;2.65;;;17.80;99.90;;;;;;6334859;22;20022;-87
2022/06/08 08:12:55;;;;;;;11.35;2.53;;;17.70;99.90;;;;;;6307014;22;19999;-87
2022/06/08 08:15:22;;;;;;;11.20;2.40;;;17.70;99.90;;;;;;6334481;22;20074;-87
2022/06/08 08:17:47;;;;;;;8.23;2.15;;;17.70;99.90;;;;;;6334687;22;20010;-86
2022/06/08 08:20:16;;;;;;;10.15;2.50;;;17.80;99.90;;;;;;6308171;22;20338;-86
2022/06/08 08:22:42;;;;;;;9.35;2.35;;;17.80;99.90;;;;;;6335855;22;20030;-86
2022/06/08 08:25:09;;;;;;;11.65;2.38;;;17.70;99.90;;;;;;6334348;22;20029;-85
2022/06/08 08:27:35;;;;;;;10.70;2.42;;;17.70;99.90;;;;;;6334541;22;20041;-85
2022/06/08 08:30:01;;;;;;;9.15;2.08;;;17.70;99.90;;;;;;6334408;22;20060;-85
2022/06/08 08:32:27;;;;;;;7.72;1.85;;;17.60;99.90;;;;;;6334685;22;20335;-85
2022/06/08 08:34:52;;;;;;;12.15;2.72;;;17.60;99.90;;;;;;6334673;22;20003;-86
2022/06/08 08:37:18;;;;;;;8.02;2.13;;;17.50;99.90;;;;;;6334572;22;20017;-85
2022/06/08 08:39:44;;;;;;;11.73;2.35;;;17.50;99.90;;;;;;6335616;22;20003;-85
2022/06/08 08:42:21;;;;;;;11.68;2.47;;;17.60;99.90;;;;;;6334370;22;20427;-87
2022/06/08 08:44:52;;;;;;;7.13;2.40;;;17.50;99.90;;;;;;6335338;22;19995;-86
2022/06/08 08:47:46;;;;;;;8.88;2.72;;;17.70;99.90;;;;;;6335009;22;20260;-85
2022/06/08 08:50:24;;;;;;;8.32;2.13;;;17.80;99.90;;;;;;6334729;22;20056;-86
2022/06/08 08:53:01;;;;;;;12.68;2.75;;;18.00;99.90;;;;;;6334223;22;20415;-86
2022/06/08 08:55:49;;;;;;;11.57;2.00;;;18.20;99.90;;;;;;6334848;22;20006;-87
2022/06/08 08:58:17;;;;;;;9.77;1.98;;;18.30;99.90;;;;;;6307655;22;20308;-86
2022/06/08 09:00:42;;;;;;;10.20;2.08;;;18.30;99.90;;;;;;6306716;22;20006;-86
2022/06/08 09:03:29;;;;;;;9.45;2.25;;;18.40;99.90;;;;;;6334067;22;20312;-86
2022/06/08 09:06:07;;;;;;;8.90;2.00;;;18.50;99.90;;;;;;6334481;22;19998;-86
2022/06/08 09:08:32;;;;;;;11.07;2.22;;;18.70;99.90;;;;;;6334451;22;20022;-86
2022/06/08 09:11:00;;;;;;;9.90;2.00;;;18.60;99.90;;;;;;6306609;22;20006;-86
2022/06/08 09:13:48;;;;;;;12.60;2.87;;;18.40;99.90;;;;;;6334065;22;20002;-86
2022/06/08 09:16:35;;;;;;;9.60;2.33;;;18.20;99.90;;;;;;6334096;22;20022;-86
2022/06/08 09:19:21;;;;;;;12.57;2.53;;;18.00;99.90;;;;;;6334012;22;20084;-86
2022/06/08 09:22:07;;;;;;;11.00;2.40;;;18.00;99.90;;;;;;6335097;22;20217;-85
2022/06/08 09:24:46;;;;;;;9.20;1.90;;;18.20;99.90;;;;;;6307036;22;20060;-85
2022/06/08 09:27:24;;;;;;;10.73;2.08;;;18.50;99.90;;;;;;6334194;22;19999;-86
2022/06/08 09:30:09;;;;;;;;;;;18.70;99.90;;;;;;6335529;22;20002;-85
2022/06/08 09:32:37;;;;;;;8.13;2.50;;;18.80;99.90;;;;;;6333744;22;19925;-85
2022/06/08 09:35:35;;;;;;;15.02;3.10;;;18.90;99.90;;;;;;6334110;22;19995;-86
2022/06/08 09:38:06;;;;;;;;;;;18.80;99.90;;;;;;6334286;22;20007;-86
2022/06/08 09:40:53;;;;;;;11.00;2.80;;;18.80;99.90;;;;;;6306207;22;19952;-85
2022/06/08 09:43:42;;;;;;;7.40;1.90;;;18.70;99.90;;;;;;6335309;22;20030;-88
2022/06/08 09:51:25;;;;;;;10.93;2.50;;;18.80;99.90;;;;;;6334708;22;19995;-85
2022/06/08 09:52:20;;;;;;;10.70;2.45;;;18.70;99.90;;;;;;6331671;22;20009;-85
2022/06/08 09:55:04;;;;;;;10.85;2.33;;;18.60;99.90;;;;;;6306977;22;20006;-84
2022/06/08 09:57:41;;;;;;;7.78;2.28;;;18.60;99.90;;;;;;6305812;22;20021;-86
2022/06/08 10:00:17;;;;;;;8.15;2.20;;;18.60;99.90;;;;;;6333862;22;20068;-85
2022/06/08 10:03:11;;;;;;;9.68;2.53;;;18.60;99.90;;;;;;6333714;22;20063;-85
2022/06/08 10:05:56;;;;;;;13.15;2.65;;;18.70;99.90;;;;;;6333005;22;20006;-85
2022/06/08 10:08:43;;;;;;;13.77;2.78;;;18.70;99.90;;;;;;6334886;22;20003;-85
2022/06/08 10:11:42;;;;;;;13.15;2.90;;;18.60;99.90;;;;;;6333796;22;20339;-86
2022/06/08 10:14:30;;;;;;;13.65;3.47;;;18.80;99.90;;;;;;6196811;22;20121;-86
2022/06/08 10:17:05;;;;;;;17.50;2.70;;;19.20;99.90;;;;;;6333174;22;20075;-86
2022/06/08 10:19:47;;;;;;;11.52;2.28;;;19.40;99.90;;;;;;6333681;22;20006;-85
2022/06/08 10:22:13;;;;;;;12.90;3.25;;;19.30;99.90;;;;;;6332798;22;20277;-85
2022/06/08 10:24:53;;;;;;;7.78;2.08;;;19.20;99.90;;;;;;6333078;22;20428;-85
2022/06/08 10:27:26;;;;;;;15.20;2.90;;;19.10;99.90;;;;;;6306810;22;20006;-85
2022/06/08 10:30:20;;;;;;;10.13;2.53;;;19.10;99.90;;;;;;6307046;22;20089;-87
2022/06/08 10:33:01;;;;;;;11.38;2.88;;;19.30;99.90;;;;;;6305704;22;20010;-86
2022/06/08 10:35:35;;;;;;;13.85;2.58;;;19.80;99.90;;;;;;6336049;22;20382;-87
2022/06/08 10:38:03;;;;;;;9.13;2.50;;;20.10;99.90;;;;;;6333354;22;20007;-87
2022/06/08 10:40:45;;;;;;;16.30;2.95;;;20.20;99.90;;;;;;6333096;22;19995;-88
2022/06/08 10:43:20;;;;;;;10.27;2.60;;;20.00;99.90;;;;;;6332482;22;19999;-88
2022/06/08 10:45:53;;;;;;;10.95;2.33;;;20.00;99.90;;;;;;6304942;22;20009;-89
2022/06/08 10:48:44;;;;;;;17.25;2.65;;;19.90;99.90;;;;;;6305896;22;19998;-88
2022/06/08 10:51:10;;;;;;;10.20;2.42;;;19.80;99.90;;;;;;6283945;22;20034;-88
2022/06/08 10:56:26;;;;;;;14.55;4.75;;;19.50;99.90;;;;;;6332613;22;20010;-89
2022/06/08 10:59:06;;;;;;;8.75;2.17;;;19.90;99.90;;;;;;6334074;22;19999;-88
2022/06/08 11:01:53;;;;;;;10.43;2.58;;;20.10;99.90;;;;;;6332997;22;19999;-87
2022/06/08 11:04:38;;;;;;;10.25;1.83;;;20.00;99.90;;;;;;6323102;22;20343;-89
2022/06/08 11:07:14;;;;;;;8.32;2.38;;;19.90;99.90;;;;;;6303449;22;20027;-88
2022/06/08 11:09:45;;;;;;;14.00;2.55;;;19.90;99.90;;;;;;6332564;22;20022;-88
2022/06/08 11:12:10;;;;;;;14.07;2.60;;;20.20;99.90;;;;;;6332718;22;19999;-88
2022/06/08 11:14:48;;;;;;;12.82;2.13;;;20.20;99.90;;;;;;6304534;22;20013;-87
2022/06/08 11:17:25;;;;;;;7.63;2.17;;;20.10;99.90;;;;;;6332286;22;20021;-88
2022/06/08 11:20:03;;;;;;;10.15;2.35;;;20.10;99.90;;;;;;6333164;22;20045;-88
2022/06/08 11:22:36;;;;;;;9.98;3.25;;;20.10;99.90;;;;;;6332436;22;20005;-87
2022/06/08 11:25:07;;;;;;;17.05;6.22;;;20.30;99.90;;;;;;6332326;22;19999;-87
2022/06/08 11:27:38;;;;;;;13.50;5.97;;;20.50;99.90;;;;;;6332608;22;19999;-87
2022/06/08 11:30:23;;;;;;;17.38;9.27;;;20.50;99.90;;;;;;6332396;22;20003;-88
2022/06/08 11:33:14;;;;;;;14.15;3.78;;;20.40;99.90;;;;;;6305459;22;20006;-87
2022/06/08 11:35:59;;;;;;;8.57;2.10;;;20.50;99.90;;;;;;6259622;22;20415;-88
2022/06/08 11:38:40;;;;;;;10.98;1.90;;;20.70;99.90;;;;;;6331536;22;20014;-87
2022/06/08 11:41:33;;;;;;;7.13;1.75;;;20.80;99.90;;;;;;6302379;22;20007;-86
2022/06/08 11:44:20;;;;;;;5.85;1.60;;;20.50;99.90;;;;;;6332616;22;20048;-88
2022/06/08 11:47:15;;;;;;;9.13;1.65;;;20.50;99.90;;;;;;6332413;22;20330;-87
2022/06/08 11:49:43;;;;;;;5.63;1.60;;;20.50;99.90;;;;;;6331287;22;20022;-86
2022/06/08 11:52:27;;;;;;;7.85;1.50;;;20.60;99.90;;;;;;6329750;22;20485;-87
2022/06/08 11:55:10;;;;;;;9.73;1.55;;;20.80;99.90;;;;;;6330156;22;20003;-86
2022/06/08 11:57:44;;;;;;;5.03;1.30;;;21.00;99.90;;;;;;6331339;22;20339;-86
2022/06/08 12:00:28;;;;;;;8.52;1.95;;;20.90;99.90;;;;;;6332094;22;20434;-85
2022/06/08 12:03:02;;;;;;;7.70;1.65;;;20.60;98.10;;;;;;6334665;22;20002;-88
2022/06/08 12:05:31;;;;;;;7.63;1.80;;;20.40;98.70;;;;;;6334561;22;20491;-86
2022/06/08 12:08:04;;;;;;;10.90;2.13;;;20.50;99.90;;;;;;6334112;22;20003;-88
2022/06/08 12:10:34;;;;;;;6.90;1.67;;;20.70;99.90;;;;;;6334388;22;19995;-87
2022/06/08 12:13:00;;;;;;;8.88;1.88;;;21.00;99.90;;;;;;6333922;22;20078;-89
2022/06/08 12:15:55;;;;;;;6.55;1.90;;;20.90;99.90;;;;;;6333140;22;20003;-87
2022/06/08 12:18:29;;;;;;;10.93;1.60;;;20.80;99.90;;;;;;6300012;22;20054;-85
2022/06/08 12:21:10;;;;;;;10.25;1.73;;;20.80;99.80;;;;;;6307113;22;20392;-86
2022/06/08 12:23:36;;;;;;;9.35;1.85;;;20.80;99.90;;;;;;6332881;22;20006;-87
2022/06/08 12:26:03;;;;;;;8.18;1.92;;;21.00;99.90;;;;;;6306515;22;20003;-88
2022/06/08 12:28:29;;;;;;;9.27;2.10;;;21.10;99.90;;;;;;6305110;22;20351;-88
2022/06/08 12:30:58;;;;;;;11.05;1.92;;;21.00;99.90;;;;;;6334709;22;20422;-86
2022/06/08 12:33:30;;;;;;;9.15;1.65;;;20.90;99.50;;;;;;6335107;22;20003;-89
2022/06/08 12:36:18;;;;;;;9.13;2.20;;;20.80;99.90;;;;;;6308022;22;20028;-89
2022/06/08 12:39:14;;;;;;;8.65;1.73;;;20.70;99.90;;;;;;6334550;22;20006;-89
2022/06/08 12:41:49;;;;;;;11.73;2.13;;;20.60;99.90;;;;;;6306443;22;20458;-90
2022/06/08 12:44:19;;;;;;;8.65;1.70;;;20.50;99.90;;;;;;6333851;22;20007;-86
2022/06/08 12:47:00;;;;;;;10.57;2.08;;;20.50;99.90;;;;;;6333380;22;20033;-87
2022/06/08 12:49:39;;;;;;;8.57;1.98;;;20.70;99.90;;;;;;6335029;22;20003;-88
2022/06/08 12:52:22;;;;;;;13.43;2.17;;;20.90;99.90;;;;;;6333520;22;20418;-87
2022/06/08 12:54:48;;;;;;;6.20;1.73;;;21.30;99.90;;;;;;6333801;22;20239;-86
2022/06/08 12:57:18;;;;;;;8.48;2.10;;;21.60;99.90;;;;;;6332950;22;20014;-88
2022/06/08 12:59:46;;;;;;;6.43;1.67;;;21.70;99.90;;;;;;6334227;22;20002;-88
2022/06/08 13:02:16;;;;;;;9.88;1.58;;;21.70;99.90;;;;;;6333055;22;20011;-88
2022/06/08 13:04:42;;;;;;;6.35;1.75;;;21.60;99.10;;;;;;6334013;22;20044;-89
2022/06/08 13:07:13;;;;;;;6.25;1.52;;;21.50;99.90;;;;;;6333847;22;20009;-88
2022/06/08 13:09:38;;;;;;;11.75;1.98;;;21.50;99.90;;;;;;6334142;22;19995;-88
2022/06/08 13:12:05;;;;;;;11.07;2.25;;;21.40;99.90;;;;;;6332577;22;20014;-87
2022/06/08 13:14:33;;;;;;;8.60;1.77;;;21.40;99.90;;;;;;6333683;22;19998;-87
2022/06/08 13:16:59;;;;;;;9.48;2.00;;;21.20;98.60;;;;;;6332840;22;20011;-89
2022/06/08 13:19:25;;;;;;;12.02;2.30;;;20.80;99.90;;;;;;6307080;22;20312;-88
2022/06/08 13:21:51;;;;;;;11.50;2.05;;;20.60;99.90;;;;;;6333453;22;20406;-88
2022/06/08 13:24:18;;;;;;;13.52;2.17;;;20.30;99.90;;;;;;6333774;22;20072;-88